Accueil
METAR-TAF:

METAR-TAF

Aéroports :

Cassel, Allemagne

latitude: 51-24N, longitude: 009-23E, altitude: 277 m

Observation

Le bulletin a été fait il y a 50 minutes, à 18:50 UTC
Vent 2 kt de direction variable
Température 1°C
Humidité 93%
Pression 1015 hPa
Visibilité 10 km ou plus
pas de nuages en-dessous de 1500 mètres et pas de cumulonimbus.

METAR: EDVK 201850Z VRB02KT CAVOK 01/00 Q1015

Heure: 20:40 (19:40 UTC)

Prévision

Le bulletin a été fait il y a 2 heures et 40 minutes, à 17:00 UTC
Prévision valable du 20 à 18 UTC au 21 à 03 UTC
Vent 3 kt de est
Visibilité 10 km ou plus
Nuages épars à une hauteur de 3500 ft
Evoluant progressivement
du 20 à 22 UTC au 20 à 24 UTC
Nuages fragmentés à une hauteur de 900 ft
Temporairement
du 21 à 00 UTC au 21 à 03 UTC
Visibilité: 4000 m
brume

TAF: EDVK 201700Z 2018/2103 08003KT 9999 SCT035 BECMG 2022/2024 BKN009 TEMPO 2100/2103 4000 BR

Observations et prévisions météorologiques de plus de 4000 aéroports (messages METAR et TAF).

Les stations disponibles sont représentées par des disques jaunes et rouges sur la carte.

Passer la souris dessus pour voir le nom de la station.

Cliquer dessus pour voir les observations et prévisions météorologiques.

Pour changer de carte: cliquez sur les boutons verts avec une croix noire pour zoomer, sur le bouton vert avec un tiret pour effectuer un zoom arrière, ou sur les flèches vertes pour les cartes adjacentes.


METAR-TAF: